Time;durP1;ratioP1;P1;durP2;ratioP2;P2;SDS_P1;SDS_P2;PMS_P1;PMS_P2;Temp;Humidity;BMP_temperature;BMP_pressure;BME280_temperature;BME280_humidity;BME280_pressure;Samples;Min_cycle;Max_cycle;Signal;HPM_P1;HPM_P2
2022/07/06 00:00:00;;;;;;;1.00;0.90;;;26.30;62.40;;;;;;5014764;28;20529;-88
2022/07/06 00:02:27;;;;;;;1.10;0.80;;;26.30;62.40;;;;;;5014498;28;20487;-86
2022/07/06 00:04:54;;;;;;;1.00;0.80;;;26.30;62.30;;;;;;5014687;28;20491;-89
2022/07/06 00:07:22;;;;;;;1.00;0.80;;;26.30;62.30;;;;;;5014746;28;20487;-89
2022/07/06 00:09:49;;;;;;;1.00;0.80;;;26.30;62.30;;;;;;5014387;28;20543;-85
2022/07/06 00:12:16;;;;;;;1.00;0.80;;;26.30;62.20;;;;;;5014621;28;20857;-86
2022/07/06 00:14:43;;;;;;;1.20;0.90;;;26.30;62.20;;;;;;5014759;28;20843;-88
2022/07/06 00:17:11;;;;;;;1.10;1.00;;;26.30;62.20;;;;;;5014391;28;20491;-85
2022/07/06 00:19:38;;;;;;;1.30;1.00;;;26.30;62.10;;;;;;5029935;28;20471;-85
2022/07/06 00:22:05;;;;;;;1.10;0.90;;;26.30;62.00;;;;;;5034029;28;20467;-85
2022/07/06 00:24:32;;;;;;;1.73;0.80;;;26.30;62.00;;;;;;5034122;28;20572;-85
2022/07/06 00:26:59;;;;;;;1.10;0.97;;;26.30;62.00;;;;;;5033812;28;20513;-85
2022/07/06 00:29:26;;;;;;;1.00;0.80;;;26.30;61.90;;;;;;5034207;28;20538;-85
2022/07/06 00:31:53;;;;;;;1.20;0.90;;;26.30;61.90;;;;;;5033200;28;20813;-85
2022/07/06 00:34:21;;;;;;;1.10;0.87;;;26.30;61.90;;;;;;5033780;28;20486;-85
2022/07/06 00:36:48;;;;;;;1.00;0.80;;;26.30;61.90;;;;;;5033937;28;20466;-85
2022/07/06 00:39:15;;;;;;;1.10;0.80;;;26.30;61.90;;;;;;5033722;28;20478;-85
2022/07/06 00:41:41;;;;;;;1.10;0.80;;;26.30;61.80;;;;;;5033969;28;20443;-89
2022/07/06 00:44:10;;;;;;;0.90;0.70;;;26.20;61.80;;;;;;5033930;28;20537;-85
2022/07/06 00:46:37;;;;;;;1.80;1.10;;;26.30;61.90;;;;;;5034069;28;20454;-85
2022/07/06 00:49:04;;;;;;;1.20;0.83;;;26.30;61.90;;;;;;5033847;28;20522;-89
2022/07/06 00:51:35;;;;;;;1.30;0.90;;;26.20;61.80;;;;;;5033659;28;20496;-85
2022/07/06 00:54:06;;;;;;;1.07;0.90;;;26.30;61.80;;;;;;5033494;28;20449;-85
2022/07/06 00:56:33;;;;;;;4.17;0.80;;;26.30;61.80;;;;;;5033578;28;20534;-85
2022/07/06 00:59:01;;;;;;;1.00;0.83;;;26.30;61.80;;;;;;5033692;28;20527;-86
2022/07/06 01:01:28;;;;;;;0.97;0.77;;;26.30;62.00;;;;;;5033500;28;20434;-86
2022/07/06 01:03:55;;;;;;;1.00;0.80;;;26.20;61.80;;;;;;5033759;28;20435;-86
2022/07/06 01:06:22;;;;;;;1.20;0.80;;;26.20;61.90;;;;;;5033270;28;20490;-85
2022/07/06 01:08:51;;;;;;;1.20;1.10;;;26.20;61.90;;;;;;5033441;28;20488;-86
2022/07/06 01:11:20;;;;;;;0.97;0.70;;;26.20;61.80;;;;;;5033338;28;20435;-86
2022/07/06 01:13:48;;;;;;;1.43;1.00;;;26.20;61.80;;;;;;5033510;28;20439;-86
2022/07/06 01:16:15;;;;;;;1.07;0.73;;;26.20;61.80;;;;;;5033307;28;21003;-89
2022/07/06 01:18:42;;;;;;;1.00;0.80;;;26.20;61.70;;;;;;5033009;28;20565;-90
2022/07/06 01:21:12;;;;;;;1.17;0.80;;;26.20;61.70;;;;;;5033248;28;20446;-86
2022/07/06 01:23:43;;;;;;;1.00;0.70;;;26.20;61.80;;;;;;5033388;28;20463;-86
2022/07/06 01:26:11;;;;;;;1.10;0.90;;;26.20;61.80;;;;;;5033044;28;20522;-86
2022/07/06 01:28:41;;;;;;;1.40;0.93;;;26.20;61.80;;;;;;5033555;28;20470;-86
2022/07/06 01:31:16;;;;;;;1.10;0.90;;;26.20;61.80;;;;;;5033336;28;20475;-86
2022/07/06 01:33:43;;;;;;;1.20;0.80;;;26.20;61.90;;;;;;5033836;28;20442;-86
2022/07/06 01:36:12;;;;;;;2.73;1.10;;;26.20;61.90;;;;;;5033597;28;20554;-86
2022/07/06 01:38:49;;;;;;;1.20;0.80;;;26.20;61.90;;;;;;5033564;28;20541;-86
2022/07/06 01:41:16;;;;;;;1.20;1.10;;;26.20;61.90;;;;;;5033070;28;21019;-86
2022/07/06 01:43:43;;;;;;;1.10;0.80;;;26.20;61.80;;;;;;5034723;28;20504;-86
2022/07/06 01:46:10;;;;;;;1.27;1.00;;;26.20;61.80;;;;;;5037130;28;20549;-89
2022/07/06 01:48:37;;;;;;;1.00;0.80;;;26.20;61.90;;;;;;5037182;28;20474;-86
2022/07/06 01:51:05;;;;;;;1.10;0.80;;;26.20;61.80;;;;;;5037201;28;20489;-86
2022/07/06 01:53:33;;;;;;;1.10;0.70;;;26.20;61.90;;;;;;5036984;28;20442;-86
2022/07/06 01:56:00;;;;;;;0.90;0.77;;;26.20;61.80;;;;;;5037001;28;20501;-87
2022/07/06 01:58:27;;;;;;;0.90;0.80;;;26.20;61.90;;;;;;5036868;28;20842;-86
2022/07/06 02:00:54;;;;;;;1.00;0.80;;;26.20;61.90;;;;;;5036780;28;20528;-85
2022/07/06 02:03:21;;;;;;;0.97;0.77;;;26.20;61.90;;;;;;5036875;28;20533;-85
2022/07/06 02:05:48;;;;;;;1.07;0.97;;;26.20;61.60;;;;;;5036439;28;21056;-88
2022/07/06 02:08:15;;;;;;;1.10;0.80;;;26.20;61.80;;;;;;5036748;28;20474;-86
2022/07/06 02:10:43;;;;;;;0.90;0.70;;;26.20;61.70;;;;;;5036523;28;20471;-86
2022/07/06 02:13:11;;;;;;;1.00;0.77;;;26.20;61.70;;;;;;5036608;28;20775;-86
2022/07/06 02:15:38;;;;;;;1.20;0.80;;;26.20;61.80;;;;;;5036747;28;20529;-86
2022/07/06 02:18:05;;;;;;;1.00;0.80;;;26.20;61.70;;;;;;5036200;28;20520;-86
2022/07/06 02:20:32;;;;;;;1.30;1.10;;;26.20;61.80;;;;;;5036353;28;20442;-90
2022/07/06 02:22:58;;;;;;;1.00;0.77;;;26.20;61.80;;;;;;5036235;28;20524;-85
2022/07/06 02:25:25;;;;;;;0.90;0.70;;;26.10;61.60;;;;;;5036313;28;20517;-89
2022/07/06 02:27:54;;;;;;;0.90;0.77;;;26.20;61.80;;;;;;5036384;28;20438;-86
2022/07/06 02:30:21;;;;;;;1.03;0.93;;;26.20;61.80;;;;;;5036200;28;20505;-86
2022/07/06 02:32:48;;;;;;;1.10;0.83;;;26.20;61.90;;;;;;5036440;28;20884;-88
2022/07/06 02:35:15;;;;;;;1.00;0.80;;;26.10;61.90;;;;;;5036008;28;20948;-89
2022/07/06 02:37:42;;;;;;;1.10;0.90;;;26.10;62.80;;;;;;5036098;28;20474;-86
2022/07/06 02:40:10;;;;;;;1.10;0.83;;;26.10;61.90;;;;;;5035853;28;20438;-86
2022/07/06 02:42:36;;;;;;;1.10;1.00;;;26.10;62.00;;;;;;5035901;28;20470;-86
2022/07/06 02:45:06;;;;;;;1.37;0.90;;;26.10;61.90;;;;;;5035776;28;21081;-90
2022/07/06 02:47:32;;;;;;;1.07;0.77;;;26.10;61.90;;;;;;5035952;28;20534;-86
2022/07/06 02:49:59;;;;;;;1.00;0.80;;;26.10;62.00;;;;;;5035898;28;20474;-86
2022/07/06 02:52:26;;;;;;;0.97;0.73;;;26.10;62.00;;;;;;5035612;28;20925;-88
2022/07/06 02:54:53;;;;;;;1.00;0.90;;;26.10;61.90;;;;;;5034847;28;20443;-85
2022/07/06 02:57:21;;;;;;;1.00;0.80;;;26.10;61.90;;;;;;5035736;28;20537;-86
2022/07/06 02:59:49;;;;;;;1.47;0.80;;;26.10;62.00;;;;;;5035594;28;20438;-85
2022/07/06 03:02:17;;;;;;;1.00;0.90;;;26.10;62.00;;;;;;5035455;28;20447;-86
2022/07/06 03:04:44;;;;;;;0.90;0.70;;;26.10;62.00;;;;;;5035588;28;20555;-85
2022/07/06 03:07:11;;;;;;;1.00;0.80;;;26.10;61.90;;;;;;5035294;28;20946;-85
2022/07/06 03:09:38;;;;;;;1.00;0.77;;;26.00;61.90;;;;;;5035507;28;20866;-85
2022/07/06 03:12:06;;;;;;;1.07;0.80;;;26.10;62.00;;;;;;5035482;28;20470;-85
2022/07/06 03:14:33;;;;;;;0.90;0.70;;;26.10;62.00;;;;;;5035621;28;20434;-86
2022/07/06 03:17:00;;;;;;;0.90;0.70;;;26.00;61.90;;;;;;5035323;28;20485;-89
2022/07/06 03:19:28;;;;;;;1.10;0.80;;;26.00;62.00;;;;;;5035252;28;20474;-85
2022/07/06 03:21:55;;;;;;;1.00;0.70;;;26.10;62.00;;;;;;5035514;28;20475;-86
2022/07/06 03:24:22;;;;;;;0.90;0.70;;;26.00;62.00;;;;;;5035466;28;20806;-85
2022/07/06 03:26:49;;;;;;;1.10;0.80;;;26.10;62.00;;;;;;5035070;28;20565;-86
2022/07/06 03:29:16;;;;;;;1.17;0.90;;;26.00;62.10;;;;;;5035190;28;20954;-86
2022/07/06 03:31:42;;;;;;;1.20;0.83;;;26.10;62.00;;;;;;5034951;28;20508;-86
2022/07/06 03:34:09;;;;;;;0.90;0.80;;;26.00;62.00;;;;;;5035200;28;20525;-86
2022/07/06 03:36:38;;;;;;;1.00;0.70;;;26.10;62.20;;;;;;5035194;28;20434;-85
2022/07/06 03:39:05;;;;;;;0.97;0.83;;;26.00;62.10;;;;;;5035036;28;20443;-86
2022/07/06 03:41:32;;;;;;;1.10;0.90;;;26.00;62.10;;;;;;5034635;28;20442;-85
2022/07/06 03:44:00;;;;;;;0.93;0.83;;;26.10;62.20;;;;;;5035052;28;20442;-86
2022/07/06 03:46:27;;;;;;;1.10;1.00;;;26.10;62.20;;;;;;5034572;28;20525;-89
2022/07/06 03:48:54;;;;;;;1.30;1.00;;;26.00;62.10;;;;;;5034621;28;20537;-90
2022/07/06 03:51:21;;;;;;;0.90;0.80;;;26.00;62.10;;;;;;5017498;28;20443;-86
2022/07/06 03:53:50;;;;;;;1.10;1.00;;;26.00;62.30;;;;;;5034751;28;20493;-86
2022/07/06 03:56:29;;;;;;;1.10;1.00;;;26.00;62.30;;;;;;5034559;28;20848;-85
2022/07/06 03:58:56;;;;;;;1.10;0.80;;;26.00;62.40;;;;;;5034675;28;20485;-85
2022/07/06 04:01:23;;;;;;;1.00;0.80;;;26.00;62.30;;;;;;5034526;28;20471;-90
2022/07/06 04:03:50;;;;;;;1.03;0.83;;;26.00;62.30;;;;;;5034739;28;20478;-89
2022/07/06 04:06:17;;;;;;;1.00;0.77;;;26.00;62.30;;;;;;5034301;28;20585;-86
2022/07/06 04:08:44;;;;;;;1.27;0.90;;;26.00;62.40;;;;;;5034360;28;20438;-91
2022/07/06 04:11:13;;;;;;;1.10;0.90;;;26.00;62.30;;;;;;5034378;28;20548;-85
2022/07/06 04:13:40;;;;;;;1.30;0.80;;;26.00;62.40;;;;;;5034342;28;20479;-85
2022/07/06 04:16:08;;;;;;;1.10;0.90;;;26.00;62.40;;;;;;5016890;28;20486;-85
2022/07/06 04:18:35;;;;;;;1.00;0.87;;;26.00;62.50;;;;;;5034379;28;20470;-88
2022/07/06 04:21:02;;;;;;;0.90;0.70;;;26.00;62.40;;;;;;5034326;28;20532;-85
2022/07/06 04:23:29;;;;;;;0.90;0.70;;;26.00;62.40;;;;;;5033942;28;20478;-85
2022/07/06 04:25:56;;;;;;;1.00;0.90;;;26.00;62.40;;;;;;5034005;28;20565;-87
2022/07/06 04:28:24;;;;;;;1.10;0.73;;;26.00;62.30;;;;;;5033894;28;20443;-86
2022/07/06 04:30:51;;;;;;;1.40;0.90;;;26.00;62.40;;;;;;5034114;28;20454;-86
2022/07/06 04:33:18;;;;;;;1.00;0.80;;;26.00;62.30;;;;;;5034202;28;20442;-85
2022/07/06 04:35:45;;;;;;;1.20;0.83;;;26.00;62.30;;;;;;5033839;28;20487;-85
2022/07/06 04:38:12;;;;;;;1.00;0.80;;;26.00;62.50;;;;;;5034238;28;20574;-90
2022/07/06 04:40:39;;;;;;;1.00;0.90;;;26.00;62.40;;;;;;5033976;28;21015;-86
2022/07/06 04:43:06;;;;;;;1.00;0.80;;;26.00;62.30;;;;;;5034012;28;20454;-85
2022/07/06 04:45:34;;;;;;;1.00;0.80;;;26.00;62.30;;;;;;5033517;28;20513;-88
2022/07/06 04:48:01;;;;;;;1.03;0.90;;;26.00;62.40;;;;;;5034111;28;20526;-86
2022/07/06 04:50:28;;;;;;;1.13;1.03;;;26.00;62.40;;;;;;5034004;28;20839;-90
2022/07/06 04:52:55;;;;;;;1.00;0.80;;;26.00;62.40;;;;;;5034000;28;20529;-85
2022/07/06 04:55:22;;;;;;;1.00;0.80;;;26.00;62.60;;;;;;5033541;28;20479;-86
2022/07/06 04:57:48;;;;;;;1.00;0.80;;;26.00;63.70;;;;;;5033829;28;20439;-86
2022/07/06 05:00:16;;;;;;;1.20;0.80;;;26.00;63.00;;;;;;5033621;28;20442;-86
2022/07/06 05:02:44;;;;;;;0.90;0.77;;;26.00;62.60;;;;;;5033492;28;20478;-86
2022/07/06 05:05:12;;;;;;;1.20;0.87;;;26.00;62.60;;;;;;5033516;28;20471;-86
2022/07/06 05:07:40;;;;;;;1.00;0.80;;;26.00;62.50;;;;;;5033508;28;20494;-86
2022/07/06 05:10:08;;;;;;;1.00;0.80;;;26.00;62.50;;;;;;5033740;28;20455;-85
2022/07/06 05:12:36;;;;;;;1.00;0.70;;;26.00;62.50;;;;;;5033760;28;20798;-88
2022/07/06 05:15:03;;;;;;;0.97;0.73;;;26.00;62.60;;;;;;5033265;28;21013;-85
2022/07/06 05:17:30;;;;;;;1.00;0.90;;;26.00;62.60;;;;;;5033993;28;20447;-86
2022/07/06 05:19:58;;;;;;;1.10;0.90;;;26.00;62.70;;;;;;5039767;28;20521;-85
2022/07/06 05:22:25;;;;;;;1.00;0.80;;;26.00;62.70;;;;;;5039979;28;20477;-85
2022/07/06 05:24:52;;;;;;;1.07;0.80;;;26.00;62.70;;;;;;5039670;28;20529;-85
2022/07/06 05:27:19;;;;;;;1.10;0.90;;;26.00;62.60;;;;;;5038728;28;20850;-85
2022/07/06 05:29:46;;;;;;;1.10;0.80;;;26.00;62.60;;;;;;5029867;28;20533;-86
2022/07/06 05:32:13;;;;;;;1.10;0.80;;;26.00;62.60;;;;;;5040053;28;20442;-88
2022/07/06 05:34:40;;;;;;;1.00;0.80;;;26.00;62.60;;;;;;5039729;28;20493;-86
2022/07/06 05:37:08;;;;;;;1.00;0.70;;;26.00;62.60;;;;;;5039895;28;21001;-85
2022/07/06 05:39:35;;;;;;;1.07;0.83;;;26.00;62.60;;;;;;5039891;28;20497;-87
2022/07/06 05:42:02;;;;;;;1.03;0.70;;;26.00;62.70;;;;;;5039768;28;20540;-86
2022/07/06 05:44:29;;;;;;;0.90;0.80;;;25.90;62.60;;;;;;5039952;28;20829;-86
2022/07/06 05:50:11;;;;;;;1.10;0.67;;;26.00;62.70;;;;;;5039758;28;20514;-87
2022/07/06 05:52:28;;;;;;;1.70;1.00;;;26.00;62.70;;;;;;5040061;28;20409;-90
2022/07/06 05:54:55;;;;;;;2.83;1.13;;;25.90;62.50;;;;;;5040201;28;20849;-87
2022/07/06 05:57:22;;;;;;;2.80;1.50;;;25.80;61.80;;;;;;5036677;28;20467;-87
2022/07/06 05:59:49;;;;;;;3.90;1.50;;;25.70;61.80;;;;;;5023045;28;20445;-88
2022/07/06 06:02:16;;;;;;;2.23;1.33;;;25.60;61.90;;;;;;5039633;28;20505;-88
2022/07/06 06:04:43;;;;;;;6.27;1.50;;;25.50;61.80;;;;;;5039578;28;20877;-88
2022/07/06 06:07:10;;;;;;;6.17;2.03;;;25.30;62.00;;;;;;5039359;28;21004;-87
2022/07/06 06:09:38;;;;;;;2.60;1.13;;;25.20;62.40;;;;;;5039187;28;20504;-87
2022/07/06 06:12:06;;;;;;;6.80;1.57;;;25.10;62.50;;;;;;5039459;28;20446;-88
2022/07/06 06:14:33;;;;;;;1.73;1.10;;;25.00;62.90;;;;;;5039999;28;20443;-86
2022/07/06 06:17:00;;;;;;;4.63;1.40;;;24.90;62.80;;;;;;5039675;28;20446;-88
2022/07/06 06:19:27;;;;;;;2.77;1.20;;;24.80;62.90;;;;;;5039360;28;20478;-88
2022/07/06 06:21:53;;;;;;;4.30;1.17;;;24.80;63.10;;;;;;5039205;28;20489;-87
2022/07/06 06:24:20;;;;;;;10.57;1.67;;;24.80;63.50;;;;;;5039321;28;20481;-88
2022/07/06 06:26:49;;;;;;;3.40;1.20;;;24.80;63.30;;;;;;5039502;28;20582;-91
2022/07/06 06:29:15;;;;;;;4.17;1.37;;;24.70;63.40;;;;;;5038636;28;20474;-88
2022/07/06 06:31:43;;;;;;;2.23;1.30;;;24.70;63.70;;;;;;5036277;28;20493;-89
2022/07/06 06:34:10;;;;;;;2.50;1.23;;;24.70;63.70;;;;;;5036160;28;21043;-90
2022/07/06 06:36:37;;;;;;;3.77;1.23;;;24.70;64.00;;;;;;5036476;28;20819;-86
2022/07/06 06:39:04;;;;;;;2.80;1.20;;;24.50;64.00;;;;;;5036149;28;20529;-86
2022/07/06 06:41:31;;;;;;;7.50;1.27;;;24.60;63.90;;;;;;5036033;28;20473;-86
2022/07/06 06:43:59;;;;;;;3.03;1.50;;;24.60;64.10;;;;;;5035978;28;20488;-93
2022/07/06 06:46:26;;;;;;;3.73;1.37;;;24.50;64.10;;;;;;5036183;28;20514;-90
2022/07/06 06:48:53;;;;;;;2.97;1.50;;;24.40;63.80;;;;;;5036252;28;20844;-85
2022/07/06 06:51:20;;;;;;;2.97;1.97;;;24.40;64.10;;;;;;5035495;28;20486;-86
2022/07/06 06:53:47;;;;;;;3.83;1.30;;;24.40;64.30;;;;;;5035636;28;20450;-91
2022/07/06 06:56:14;;;;;;;3.90;1.33;;;24.20;64.20;;;;;;5035698;28;20934;-91
2022/07/06 06:58:41;;;;;;;2.50;1.20;;;24.20;64.20;;;;;;5035653;28;20979;-84
2022/07/06 07:01:10;;;;;;;5.30;1.73;;;24.20;64.20;;;;;;5035875;28;20784;-85
2022/07/06 07:03:37;;;;;;;2.70;1.17;;;24.30;64.20;;;;;;5035384;28;20481;-86
2022/07/06 07:06:04;;;;;;;2.90;1.07;;;24.40;64.20;;;;;;5036164;28;20859;-88
2022/07/06 07:08:30;;;;;;;1.63;1.27;;;24.40;63.90;;;;;;5035823;28;20470;-88
2022/07/06 07:10:58;;;;;;;2.83;1.10;;;24.40;63.70;;;;;;5035552;28;20490;-86
2022/07/06 07:13:24;;;;;;;1.63;1.00;;;24.40;63.60;;;;;;5035134;28;20451;-89
2022/07/06 07:15:51;;;;;;;2.03;1.30;;;24.50;63.80;;;;;;5035553;28;20507;-87
2022/07/06 07:18:20;;;;;;;2.07;1.20;;;24.30;63.70;;;;;;5035267;28;20478;-91
2022/07/06 07:20:47;;;;;;;1.60;1.00;;;24.30;63.90;;;;;;5035042;28;20481;-86
2022/07/06 07:23:14;;;;;;;4.93;1.37;;;24.30;64.20;;;;;;5035679;28;20483;-87
2022/07/06 07:25:41;;;;;;;5.57;1.63;;;24.40;64.20;;;;;;5035542;28;20529;-87
2022/07/06 07:28:08;;;;;;;2.30;1.03;;;24.40;64.60;;;;;;5035215;28;20518;-92
2022/07/06 07:30:35;;;;;;;4.93;1.20;;;24.40;64.40;;;;;;5036193;28;20952;-84
2022/07/06 07:33:02;;;;;;;3.50;1.20;;;24.30;64.40;;;;;;5034689;28;20526;-87
2022/07/06 07:35:30;;;;;;;3.83;1.17;;;24.50;64.30;;;;;;5035633;28;20970;-87
2022/07/06 07:37:57;;;;;;;8.33;1.57;;;24.60;64.10;;;;;;5039484;28;20443;-92
2022/07/06 07:40:24;;;;;;;2.33;0.90;;;24.60;63.60;;;;;;5039655;28;20498;-83
2022/07/06 07:43:31;;;;;;;2.50;1.20;;;24.80;64.50;;;;;;5044566;28;20930;-83
2022/07/06 07:45:58;;;;;;;3.67;2.33;;;24.90;63.20;;;;;;5036051;28;20462;-88
2022/07/06 07:48:26;;;;;;;5.60;1.50;;;24.90;63.10;;;;;;5024153;28;20525;-86
2022/07/06 07:50:54;;;;;;;3.03;1.87;;;24.90;62.90;;;;;;5037080;28;20525;-86
2022/07/06 07:53:21;;;;;;;5.43;1.10;;;25.00;62.90;;;;;;5038339;28;20809;-86
2022/07/06 07:55:48;;;;;;;1.73;1.00;;;25.00;63.10;;;;;;5036722;28;20469;-83
2022/07/06 07:58:14;;;;;;;3.37;1.00;;;25.10;62.50;;;;;;5035033;28;20881;-93
2022/07/06 08:00:41;;;;;;;5.87;1.10;;;25.10;61.90;;;;;;5035604;28;20502;-84
2022/07/06 08:03:08;;;;;;;6.10;1.10;;;25.20;61.30;;;;;;5034345;28;20530;-84
2022/07/06 08:05:35;;;;;;;2.53;1.00;;;25.20;61.30;;;;;;5034986;28;20443;-95
2022/07/06 08:08:04;;;;;;;2.50;0.93;;;25.30;61.70;;;;;;5035849;28;20565;-82
2022/07/06 08:10:32;;;;;;;4.40;1.07;;;25.30;61.90;;;;;;5034364;28;20447;-86
2022/07/06 08:12:59;;;;;;;3.70;1.20;;;25.40;61.90;;;;;;5034762;28;20537;-87
2022/07/06 08:15:26;;;;;;;1.27;0.80;;;25.40;61.40;;;;;;5035573;28;20533;-87
2022/07/06 08:17:52;;;;;;;6.23;1.40;;;25.40;61.40;;;;;;5020876;28;20444;-89
2022/07/06 08:20:19;;;;;;;2.37;1.00;;;25.40;61.50;;;;;;5014508;28;20929;-83
2022/07/06 08:22:46;;;;;;;1.83;0.90;;;25.40;61.50;;;;;;5014598;28;20527;-83
2022/07/06 08:25:15;;;;;;;2.77;1.03;;;25.40;61.60;;;;;;5032890;28;20517;-89
2022/07/06 08:27:41;;;;;;;3.83;1.40;;;25.50;61.60;;;;;;5032741;28;20573;-85
2022/07/06 08:30:10;;;;;;;3.40;1.00;;;25.50;61.70;;;;;;5032931;28;20439;-84
2022/07/06 08:32:39;;;;;;;3.87;1.00;;;25.50;61.70;;;;;;5035389;28;20511;-85
2022/07/06 08:35:06;;;;;;;2.60;0.90;;;25.50;61.70;;;;;;5017717;28;20468;-88
2022/07/06 08:37:33;;;;;;;1.73;0.80;;;25.50;62.40;;;;;;5015375;28;20538;-89
2022/07/06 08:40:00;;;;;;;4.03;1.00;;;25.50;61.60;;;;;;5014307;28;20487;-88
2022/07/06 08:42:32;;;;;;;2.07;1.00;;;25.60;61.60;;;;;;5014465;28;20538;-88
2022/07/06 08:45:01;;;;;;;3.03;0.90;;;25.60;61.60;;;;;;5014096;28;20990;-84
2022/07/06 08:47:28;;;;;;;4.43;1.30;;;25.50;61.40;;;;;;5013866;28;20492;-84
2022/07/06 08:49:55;;;;;;;2.90;1.10;;;25.60;61.60;;;;;;5071014;23;20592;-86
2022/07/06 08:52:23;;;;;;;2.00;0.70;;;25.60;61.50;;;;;;5136141;27;20472;-86
2022/07/06 08:54:51;;;;;;;1.73;1.10;;;25.70;61.60;;;;;;5134435;27;20522;-85
2022/07/06 08:57:18;;;;;;;3.33;1.17;;;25.70;61.60;;;;;;5134956;27;20520;-91
2022/07/06 08:59:46;;;;;;;1.83;0.90;;;25.70;61.40;;;;;;5134824;27;20431;-85
2022/07/06 09:02:14;;;;;;;3.40;1.03;;;25.70;61.40;;;;;;5134778;27;20941;-91
2022/07/06 09:04:44;;;;;;;1.63;1.00;;;25.70;61.30;;;;;;5134882;27;20541;-92
2022/07/06 09:07:13;;;;;;;1.10;1.00;;;25.70;61.30;;;;;;5135019;27;20522;-91
2022/07/06 09:09:41;;;;;;;1.40;0.70;;;25.70;61.20;;;;;;5135090;27;20541;-84
2022/07/06 09:12:12;;;;;;;2.40;0.80;;;25.80;61.30;;;;;;5135357;27;21001;-93
2022/07/06 09:14:40;;;;;;;2.00;0.87;;;25.80;61.20;;;;;;5135551;27;20438;-84
2022/07/06 09:17:08;;;;;;;1.63;1.03;;;25.80;61.10;;;;;;5135026;28;21015;-92
2022/07/06 09:19:36;;;;;;;2.03;0.73;;;25.70;61.00;;;;;;5134650;28;20521;-86
2022/07/06 09:22:03;;;;;;;1.20;0.90;;;25.80;61.10;;;;;;5134916;28;20513;-89
2022/07/06 09:24:31;;;;;;;1.10;0.70;;;25.80;61.00;;;;;;5134895;28;20529;-86
2022/07/06 09:26:59;;;;;;;1.67;0.90;;;25.80;61.00;;;;;;5134941;28;20478;-93
2022/07/06 09:29:29;;;;;;;1.43;0.80;;;25.80;61.80;;;;;;5134977;28;20955;-93
2022/07/06 09:32:00;;;;;;;1.00;0.80;;;25.80;60.90;;;;;;5134726;28;20442;-86
2022/07/06 09:34:41;;;;;;;3.60;1.07;;;25.80;61.10;;;;;;5134771;28;20812;-93
2022/07/06 09:37:08;;;;;;;1.43;0.80;;;25.80;61.20;;;;;;5134510;28;20921;-94
2022/07/06 09:39:35;;;;;;;2.70;0.80;;;25.80;61.40;;;;;;5134468;28;20438;-85
2022/07/06 09:42:04;;;;;;;1.13;0.80;;;25.80;61.70;;;;;;5134743;28;20533;-87
2022/07/06 09:44:32;;;;;;;1.50;0.80;;;25.80;61.70;;;;;;5133605;28;20456;-88
2022/07/06 09:47:01;;;;;;;1.30;0.70;;;25.80;61.80;;;;;;5133270;28;20450;-91
2022/07/06 09:49:29;;;;;;;2.07;0.80;;;25.80;62.00;;;;;;5134102;28;20466;-88
2022/07/06 09:51:58;;;;;;;1.10;0.70;;;25.80;61.80;;;;;;5121656;28;20461;-88
2022/07/06 09:54:25;;;;;;;1.53;0.90;;;25.80;61.80;;;;;;5124966;28;20530;-88
2022/07/06 09:56:53;;;;;;;1.60;0.80;;;25.70;61.70;;;;;;5133683;28;20522;-85
2022/07/06 09:59:21;;;;;;;1.20;0.73;;;25.80;61.90;;;;;;5133714;28;20438;-86
2022/07/06 10:01:51;;;;;;;1.47;0.70;;;25.80;61.90;;;;;;5133876;28;20438;-87
2022/07/06 10:04:20;;;;;;;1.90;0.80;;;25.80;61.80;;;;;;5134848;27;20556;-89
2022/07/06 10:06:49;;;;;;;2.07;0.90;;;25.80;61.80;;;;;;5138158;27;20446;-86
2022/07/06 10:09:16;;;;;;;1.83;0.97;;;25.80;61.90;;;;;;5137963;27;20525;-88
2022/07/06 10:11:46;;;;;;;1.00;0.83;;;25.80;61.80;;;;;;5137712;27;20519;-90
2022/07/06 10:14:15;;;;;;;1.60;0.80;;;25.80;61.80;;;;;;5137468;27;21023;-84
2022/07/06 10:16:43;;;;;;;0.90;0.60;;;25.80;61.90;;;;;;5138155;27;20529;-90
2022/07/06 10:19:11;;;;;;;1.00;0.70;;;25.70;61.80;;;;;;5137740;27;20470;-89
2022/07/06 10:21:39;;;;;;;1.13;0.77;;;25.70;61.70;;;;;;5137572;27;20525;-90
2022/07/06 10:24:10;;;;;;;2.50;1.33;;;25.80;61.90;;;;;;5137406;27;21012;-88
2022/07/06 10:26:38;;;;;;;1.13;0.70;;;25.80;61.90;;;;;;5137289;27;20798;-84
2022/07/06 10:29:06;;;;;;;0.90;0.70;;;25.80;61.90;;;;;;5138284;27;20564;-91
2022/07/06 10:31:37;;;;;;;1.00;0.70;;;25.80;61.90;;;;;;5137746;27;20446;-85
2022/07/06 10:34:07;;;;;;;1.60;0.80;;;25.80;62.00;;;;;;5137048;27;21015;-84
2022/07/06 10:36:38;;;;;;;1.23;0.80;;;25.80;62.00;;;;;;5137224;27;20450;-84
2022/07/06 10:41:47;;;;;;;1.67;0.80;;;25.80;62.10;;;;;;5136174;27;20421;-84
2022/07/06 10:44:18;;;;;;;1.00;0.70;;;25.80;62.10;;;;;;5136877;27;20465;-85
2022/07/06 10:46:52;;;;;;;4.53;0.70;;;25.80;62.10;;;;;;5136907;27;21200;-84
2022/07/06 10:49:20;;;;;;;1.10;0.70;;;25.80;62.10;;;;;;5136623;27;20485;-84
2022/07/06 10:51:49;;;;;;;2.23;0.70;;;25.80;62.10;;;;;;5136585;27;20553;-83
2022/07/06 10:54:18;;;;;;;1.10;0.70;;;25.80;62.10;;;;;;5136665;27;20991;-83
2022/07/06 10:56:46;;;;;;;1.20;0.80;;;25.80;62.10;;;;;;5136632;27;20435;-85
2022/07/06 10:59:15;;;;;;;3.00;0.77;;;25.80;62.00;;;;;;5136656;27;20484;-85
2022/07/06 11:02:02;;;;;;;1.17;0.90;;;25.80;62.00;;;;;;5136541;27;20533;-86
2022/07/06 11:04:32;;;;;;;0.90;0.63;;;25.80;62.00;;;;;;5136297;27;20838;-85
2022/07/06 11:07:10;;;;;;;1.93;0.80;;;25.80;61.90;;;;;;5136812;27;20524;-84
2022/07/06 11:09:42;;;;;;;1.60;0.80;;;25.80;61.90;;;;;;5136459;27;20449;-86
2022/07/06 11:12:20;;;;;;;1.93;0.80;;;25.80;62.00;;;;;;5136395;27;20442;-85
2022/07/06 11:14:48;;;;;;;3.40;1.13;;;25.80;62.90;;;;;;5136992;27;20437;-89
2022/07/06 11:17:16;;;;;;;1.50;1.10;;;25.80;62.00;;;;;;5134995;27;20434;-83
2022/07/06 11:19:56;;;;;;;1.90;0.90;;;25.80;61.70;;;;;;5136356;27;20541;-83
2022/07/06 11:22:24;;;;;;;8.07;1.00;;;25.80;61.70;;;;;;5136990;27;20482;-84
2022/07/06 11:24:55;;;;;;;3.90;0.80;;;25.80;61.90;;;;;;5137191;27;20447;-84
2022/07/06 11:27:24;;;;;;;1.60;0.90;;;25.80;61.90;;;;;;5136899;27;20446;-87
2022/07/06 11:29:51;;;;;;;2.80;1.10;;;25.80;61.80;;;;;;5136387;27;20540;-87
2022/07/06 11:32:24;;;;;;;2.50;1.00;;;25.80;60.30;;;;;;5136020;27;20446;-87
2022/07/06 11:34:51;;;;;;;3.80;1.10;;;25.90;60.20;;;;;;5136390;27;20524;-86
2022/07/06 11:37:18;;;;;;;4.20;1.00;;;25.90;58.90;;;;;;5135704;27;20442;-88
2022/07/06 11:39:47;;;;;;;1.77;0.93;;;25.90;58.50;;;;;;5136322;27;20438;-89
2022/07/06 11:42:18;;;;;;;4.87;1.00;;;25.80;58.20;;;;;;5136000;27;20898;-87
2022/07/06 11:44:46;;;;;;;1.50;1.00;;;25.80;58.00;;;;;;5136088;27;20513;-88
2022/07/06 11:47:14;;;;;;;5.43;1.43;;;25.90;58.20;;;;;;5136180;27;20984;-88
2022/07/06 11:49:42;;;;;;;3.60;1.63;;;25.90;58.10;;;;;;5135655;27;20490;-86
2022/07/06 11:52:11;;;;;;;1.50;0.90;;;25.90;58.10;;;;;;5135774;27;20450;-87
2022/07/06 11:54:39;;;;;;;1.43;0.80;;;25.90;58.30;;;;;;5135631;27;20533;-84
2022/07/06 11:57:10;;;;;;;2.73;1.20;;;25.80;58.40;;;;;;5135724;27;20502;-87
2022/07/06 11:59:40;;;;;;;4.37;1.40;;;25.90;58.50;;;;;;5135694;27;20529;-90
2022/07/06 12:02:08;;;;;;;3.37;0.90;;;25.80;59.00;;;;;;5135628;27;20441;-89
2022/07/06 12:04:36;;;;;;;6.63;1.10;;;25.80;59.30;;;;;;5135627;27;20536;-85
2022/07/06 12:07:05;;;;;;;4.40;0.97;;;25.80;59.60;;;;;;5135743;27;20511;-85
2022/07/06 12:09:32;;;;;;;3.97;1.00;;;25.90;59.90;;;;;;5134791;27;20548;-85
2022/07/06 12:12:02;;;;;;;3.40;0.90;;;25.80;60.00;;;;;;5135288;27;20441;-89
2022/07/06 12:14:29;;;;;;;1.40;0.80;;;25.80;60.20;;;;;;5135060;27;20481;-85
2022/07/06 12:16:57;;;;;;;3.77;1.13;;;25.80;60.40;;;;;;5135000;27;20453;-85
2022/07/06 12:19:24;;;;;;;3.00;1.17;;;25.90;60.60;;;;;;5135118;27;20807;-89
2022/07/06 12:21:52;;;;;;;1.70;0.90;;;25.90;60.70;;;;;;5134856;27;20529;-85
2022/07/06 12:24:21;;;;;;;2.30;0.97;;;25.90;60.70;;;;;;5134589;27;20874;-89
2022/07/06 12:26:49;;;;;;;1.43;0.80;;;25.90;60.90;;;;;;5135194;27;20822;-85
2022/07/06 12:29:16;;;;;;;1.10;0.80;;;25.90;61.70;;;;;;5134674;27;20568;-89
2022/07/06 12:31:45;;;;;;;2.23;0.80;;;25.90;60.90;;;;;;5135071;27;20442;-84
2022/07/06 12:34:18;;;;;;;2.30;0.93;;;25.90;61.00;;;;;;5134720;27;20537;-84
2022/07/06 12:36:46;;;;;;;1.97;0.80;;;25.90;61.10;;;;;;5134562;27;20453;-88
2022/07/06 12:39:14;;;;;;;2.20;1.00;;;25.90;61.00;;;;;;5134959;27;20481;-88
2022/07/06 12:41:46;;;;;;;2.00;0.80;;;25.90;61.20;;;;;;5135293;27;20478;-90
2022/07/06 12:44:14;;;;;;;2.73;1.00;;;25.90;61.10;;;;;;5136456;27;20432;-88
2022/07/06 12:46:42;;;;;;;1.97;0.70;;;25.90;61.20;;;;;;5136575;27;20466;-92
2022/07/06 12:49:17;;;;;;;1.20;0.70;;;25.90;61.20;;;;;;5134923;27;20577;-91
2022/07/06 12:51:55;;;;;;;3.40;1.10;;;25.90;61.30;;;;;;5134763;27;20557;-91
2022/07/06 12:54:23;;;;;;;1.87;1.10;;;25.90;61.30;;;;;;5135055;27;20450;-92
2022/07/06 12:57:08;;;;;;;4.07;1.17;;;25.90;61.30;;;;;;5137007;27;20478;-90